Hauptseite
METAR-TAF:

METAR-TAF

Flughäfen :

Tiree Airport

Tiree, Schottland

Breite: 56-30N, Länge: 006-53W, Höhe: 12 m

Beobachtung

Neuester Wetterbericht von vor 40 Minuten, um 18:50 UTC
Wind 12 kt aus West/Nordwest
Temperatur 11°C
Luftfeuchtigkeit 71%
Luftdruck 1017 hPa
Sichtweite 10 km oder mehr

METAR: EGPU 221850Z AUTO 29012KT 9999 NCD 11/06 Q1017

Zeit: 20:30 (19:30 UTC)

Prognose

Neuester Wetterbericht von vor 5 Stunden und 30 Minuten, um 14:00 UTC
Gültige Prognose vom 22 um 15 UTC bis 22 um 18 UTC
Wind 11 kt aus West/Nordwest
Sichtweite 10 km oder mehr
Aufgelockert bewölkt in der Höhe von 1800 ft
Zeitweise
vom 22 um 16 UTC bis 22 um 18 UTC
Sichtweite: 9000 m
Durchbrochene Bewölkung in der Höhe von 1200 ft
Leichtregen

TAF: EGPU 221400Z 2215/2218 30011KT 9999 SCT018 TEMPO 2216/2218 9000 -RA BKN012

Wetterbeobachtungen und Prognosen von mehr als 4000 Flughäfen (METAR und TAF Bericht).

Die verfügbaren Stationen werden durch gelbe und rote Markierungen auf der Karte dargestellt.

Führen Sie die Maus auf sie, um den Namen der Station zu sehen.

Darauf klicken, um die Beobachtung von Wetterbeobachtungen und Prognosen zu sehen.

Um die Karte zu ändern : klicken Sie auf den grünen Tasten mit einem schwarzen Kreuz Zum Vergrößern, auf den grünen Button mit einem Gedankenstrich zu verkleinern, oder auf die grünen Pfeile für benachbarte Karten.


METAR-TAF: